Terminal Aerodrome Forecast
Issued by NWS

Home | Current Version | Previous Version | Graphics & Text | Print | Product List | Glossary On
Versions: 1 2 3 4 5 6 7 8 9 10 11 12 13 14 15 16 17
000
FTUS43 KMPX 222336
TAFAXN
TAF
KAXN 222336Z 2300/2324 15004KT P6SM SCT250
     FM230900 19004KT P6SM BKN250
     FM231400 18006KT P6SM SCT060 BKN120
     FM231900 18009KT P6SM VCSH BKN050 OVC090=

USA.gov is the U.S. government's official web portal to all federal, state and local government web resources and services.